createdAt,value
2022-07-27T00:01:06.031Z,16.53
2022-07-27T00:03:32.196Z,16.54
2022-07-27T00:05:58.370Z,16.36
2022-07-27T00:08:24.543Z,16.33
2022-07-27T00:10:50.679Z,16.28
2022-07-27T00:13:16.821Z,16.05
2022-07-27T00:15:42.981Z,16.20
2022-07-27T00:18:09.115Z,16.12
2022-07-27T00:20:35.279Z,16.11
2022-07-27T00:23:01.422Z,16.15
2022-07-27T00:25:27.833Z,15.86
2022-07-27T00:27:54.039Z,15.96
2022-07-27T00:30:20.165Z,16.09
2022-07-27T00:32:46.289Z,16.18
2022-07-27T00:35:12.448Z,16.13
2022-07-27T00:37:38.585Z,16.14
2022-07-27T00:40:04.747Z,16.14
2022-07-27T00:42:30.918Z,16.06
2022-07-27T00:44:57.063Z,15.76
2022-07-27T00:47:23.191Z,15.85
2022-07-27T00:49:49.342Z,15.88
2022-07-27T00:52:15.477Z,15.85
2022-07-27T00:54:41.619Z,16.06
2022-07-27T00:57:07.774Z,16.00
2022-07-27T00:59:33.918Z,16.08
2022-07-27T01:02:00.177Z,16.00
2022-07-27T01:04:26.415Z,15.89
2022-07-27T01:06:52.574Z,16.00
2022-07-27T01:09:18.726Z,15.96
2022-07-27T01:11:44.877Z,15.79
2022-07-27T01:14:11.017Z,15.82
2022-07-27T01:16:37.236Z,15.86
2022-07-27T01:19:03.446Z,15.84
2022-07-27T01:21:34.103Z,15.70
2022-07-27T01:24:00.350Z,15.61
2022-07-27T01:26:26.503Z,15.63
2022-07-27T01:28:52.639Z,15.49
2022-07-27T01:31:18.856Z,15.52
2022-07-27T01:33:45.025Z,15.48
2022-07-27T01:36:11.155Z,15.49
2022-07-27T01:38:37.278Z,15.60
2022-07-27T01:41:03.819Z,15.66
2022-07-27T01:43:29.951Z,15.65
2022-07-27T01:45:56.247Z,15.70
2022-07-27T01:48:22.500Z,15.69
2022-07-27T01:50:48.841Z,15.54
2022-07-27T01:53:14.980Z,15.55
2022-07-27T01:55:41.144Z,15.41
2022-07-27T01:58:07.341Z,15.33
2022-07-27T02:00:33.528Z,15.43
2022-07-27T02:02:59.690Z,15.54
2022-07-27T02:05:25.977Z,15.42
2022-07-27T02:07:52.256Z,15.36
2022-07-27T02:10:18.402Z,15.23
2022-07-27T02:12:44.530Z,15.31
2022-07-27T02:15:15.084Z,15.06
2022-07-27T02:17:41.765Z,15.15
2022-07-27T02:20:08.025Z,15.04
2022-07-27T02:22:34.152Z,15.21
2022-07-27T02:25:00.303Z,15.07
2022-07-27T02:27:26.438Z,15.16
2022-07-27T02:29:52.590Z,15.16
2022-07-27T02:32:19.031Z,15.23
2022-07-27T02:34:45.157Z,15.27
2022-07-27T02:37:11.312Z,15.38
2022-07-27T02:39:37.464Z,15.39
2022-07-27T02:42:03.598Z,14.99
2022-07-27T02:44:29.756Z,15.13
2022-07-27T02:46:56.440Z,15.25
2022-07-27T02:49:22.996Z,15.31
2022-07-27T02:51:49.221Z,15.31
2022-07-27T02:54:15.388Z,15.23
2022-07-27T02:56:41.518Z,15.24
2022-07-27T02:59:07.677Z,15.24
2022-07-27T03:01:33.873Z,15.13
2022-07-27T03:04:00.148Z,15.15
2022-07-27T03:06:26.325Z,15.13
2022-07-27T03:08:52.497Z,15.06
2022-07-27T03:11:18.654Z,15.23
2022-07-27T03:13:44.840Z,15.28
2022-07-27T03:16:11.043Z,15.10
2022-07-27T03:18:37.238Z,15.03
2022-07-27T03:21:03.402Z,14.94
2022-07-27T03:23:29.564Z,14.80
2022-07-27T03:25:55.728Z,14.86
2022-07-27T03:28:21.885Z,14.87
2022-07-27T03:30:48.133Z,14.96
2022-07-27T03:33:14.302Z,14.83
2022-07-27T03:35:40.427Z,14.69
2022-07-27T03:38:06.636Z,14.78
2022-07-27T03:40:32.948Z,14.84
2022-07-27T03:42:59.185Z,14.76
2022-07-27T03:45:25.374Z,14.62
2022-07-27T03:47:51.509Z,14.60
2022-07-27T03:50:17.639Z,14.77
2022-07-27T03:52:45.685Z,14.75
2022-07-27T03:55:12.038Z,14.66
2022-07-27T03:57:38.170Z,14.58
2022-07-27T04:00:04.313Z,14.51
2022-07-27T04:02:30.525Z,14.47
2022-07-27T04:04:56.714Z,14.56
2022-07-27T04:07:22.875Z,14.52
2022-07-27T04:09:48.995Z,14.54
2022-07-27T04:12:16.678Z,14.57
2022-07-27T04:14:46.044Z,14.55
2022-07-27T04:17:12.204Z,14.40
2022-07-27T04:19:58.305Z,14.42
2022-07-27T04:22:24.482Z,14.49
2022-07-27T04:24:50.622Z,14.41
2022-07-27T04:27:16.789Z,14.32
2022-07-27T04:29:42.993Z,14.33
2022-07-27T04:32:09.134Z,14.48
2022-07-27T04:34:35.294Z,14.51
2022-07-27T04:37:01.431Z,14.48
2022-07-27T04:39:27.574Z,14.64
2022-07-27T04:41:53.729Z,14.61
2022-07-27T04:44:19.858Z,14.54
2022-07-27T04:46:45.994Z,14.53
2022-07-27T04:49:13.152Z,14.52
2022-07-27T04:51:39.562Z,14.59
2022-07-27T04:54:05.681Z,14.57
2022-07-27T04:56:31.850Z,14.64
2022-07-27T04:58:57.985Z,14.59
2022-07-27T05:01:24.169Z,14.56
2022-07-27T05:03:50.498Z,14.61
2022-07-27T05:06:16.681Z,14.44
2022-07-27T05:08:42.835Z,14.43
2022-07-27T05:11:08.996Z,14.57
2022-07-27T05:13:35.126Z,14.65
2022-07-27T05:16:01.323Z,14.48
2022-07-27T05:18:27.569Z,14.41
2022-07-27T05:20:53.796Z,14.58
2022-07-27T05:23:19.948Z,14.64
2022-07-27T05:25:46.101Z,14.66
2022-07-27T05:28:12.259Z,14.58
2022-07-27T05:30:38.431Z,14.71
2022-07-27T05:33:04.585Z,14.73
2022-07-27T05:35:30.718Z,14.70
2022-07-27T05:37:56.882Z,14.60
2022-07-27T05:40:23.034Z,14.63
2022-07-27T05:42:49.184Z,14.68
2022-07-27T05:45:15.309Z,14.78
2022-07-27T05:47:41.732Z,14.85
2022-07-27T05:50:07.864Z,14.66
2022-07-27T05:52:34.008Z,14.69
2022-07-27T05:55:00.171Z,14.83
2022-07-27T05:57:26.290Z,14.92
2022-07-27T05:59:52.422Z,14.73
2022-07-27T06:02:18.573Z,14.56
2022-07-27T06:04:44.701Z,14.71
2022-07-27T06:07:10.837Z,14.94
2022-07-27T06:09:36.977Z,14.87
2022-07-27T06:12:03.107Z,14.72
2022-07-27T06:14:29.235Z,14.83
2022-07-27T06:16:55.432Z,14.81
2022-07-27T06:19:21.583Z,14.92
2022-07-27T06:21:53.465Z,15.10
2022-07-27T06:24:20.059Z,15.11
2022-07-27T06:26:46.197Z,15.19
2022-07-27T06:29:12.767Z,15.31
2022-07-27T06:31:39.119Z,15.49
2022-07-27T06:34:11.701Z,15.64
2022-07-27T06:36:38.123Z,15.77
2022-07-27T06:39:04.274Z,15.67
2022-07-27T06:41:30.407Z,15.45
2022-07-27T06:43:56.534Z,15.58
2022-07-27T06:46:22.741Z,15.54
2022-07-27T06:48:48.956Z,15.79
2022-07-27T06:51:15.115Z,15.66
2022-07-27T06:53:41.257Z,15.86
2022-07-27T06:56:07.544Z,15.73
2022-07-27T06:58:33.697Z,15.95
2022-07-27T07:00:59.939Z,16.06
2022-07-27T07:03:26.319Z,16.13
2022-07-27T07:05:52.474Z,15.85
2022-07-27T07:08:18.622Z,15.94
2022-07-27T07:10:44.801Z,16.17
2022-07-27T07:13:10.987Z,16.35
2022-07-27T07:15:37.146Z,16.51
2022-07-27T07:18:03.283Z,16.59
2022-07-27T07:20:29.429Z,16.53
2022-07-27T07:22:55.573Z,16.54
2022-07-27T07:25:21.697Z,16.43
2022-07-27T07:27:48.012Z,16.61
2022-07-27T07:30:14.192Z,16.74
2022-07-27T07:32:40.346Z,16.99
2022-07-27T07:35:06.470Z,17.09
2022-07-27T07:37:33.868Z,17.02
2022-07-27T07:40:18.330Z,16.83
2022-07-27T07:42:46.525Z,16.98
2022-07-27T07:45:12.681Z,16.98
2022-07-27T07:47:38.810Z,17.03
2022-07-27T07:50:04.976Z,17.06
2022-07-27T07:52:31.122Z,17.32
2022-07-27T07:54:57.255Z,17.39
2022-07-27T07:57:23.760Z,17.43
2022-07-27T07:59:49.900Z,17.62
2022-07-27T08:02:16.070Z,17.86
2022-07-27T08:04:42.323Z,17.92
2022-07-27T08:07:08.459Z,17.91
2022-07-27T08:09:34.598Z,17.65
2022-07-27T08:12:02.494Z,17.72
2022-07-27T08:14:28.622Z,17.97
2022-07-27T08:16:54.759Z,17.92
2022-07-27T08:19:20.901Z,18.00
2022-07-27T08:21:47.039Z,17.25
2022-07-27T08:24:13.193Z,17.16
2022-07-27T08:26:39.350Z,17.49
2022-07-27T08:29:11.180Z,17.54
2022-07-27T08:31:52.354Z,17.62
2022-07-27T08:34:19.443Z,17.73
2022-07-27T08:36:45.609Z,17.63
2022-07-27T08:39:31.798Z,17.71
2022-07-27T08:41:57.879Z,17.66
2022-07-27T08:44:24.030Z,17.74
2022-07-27T08:46:50.213Z,17.60
2022-07-27T08:49:17.140Z,17.33
2022-07-27T08:51:47.065Z,17.24
2022-07-27T08:54:13.565Z,17.31
2022-07-27T08:56:40.013Z,17.42
2022-07-27T08:59:06.150Z,17.14
2022-07-27T09:01:32.320Z,17.50
2022-07-27T09:03:58.499Z,17.56
2022-07-27T09:06:24.638Z,17.88
2022-07-27T09:08:53.341Z,18.18
2022-07-27T09:11:19.632Z,18.00
2022-07-27T09:13:45.767Z,18.33
2022-07-27T09:16:18.162Z,18.12
2022-07-27T09:18:45.155Z,18.02
2022-07-27T09:21:11.294Z,17.79
2022-07-27T09:23:37.456Z,17.97
2022-07-27T09:26:10.885Z,18.04
2022-07-27T09:28:40.712Z,17.96
2022-07-27T09:31:06.906Z,17.82
2022-07-27T09:33:33.075Z,18.26
2022-07-27T09:35:59.985Z,18.24
2022-07-27T09:38:26.149Z,18.33
2022-07-27T09:40:52.307Z,18.36
2022-07-27T09:44:12.327Z,18.62
2022-07-27T09:46:07.737Z,18.77
2022-07-27T09:48:33.969Z,18.65
2022-07-27T09:51:02.632Z,18.90
2022-07-27T09:53:42.889Z,19.11
2022-07-27T09:56:09.682Z,19.20
2022-07-27T09:58:35.853Z,19.16
2022-07-27T10:01:02.007Z,19.04
2022-07-27T10:03:28.146Z,19.33
2022-07-27T10:05:54.383Z,19.08
2022-07-27T10:08:20.526Z,19.47
2022-07-27T10:10:46.653Z,19.14
2022-07-27T10:13:12.813Z,18.80
2022-07-27T10:15:39.007Z,18.82
2022-07-27T10:18:07.326Z,18.82
2022-07-27T10:20:33.902Z,19.04
2022-07-27T10:23:00.042Z,19.07
2022-07-27T10:25:26.240Z,18.78
2022-07-27T10:27:52.403Z,18.78
2022-07-27T10:30:24.099Z,18.65
2022-07-27T10:32:53.927Z,18.70
2022-07-27T10:35:20.068Z,18.83
2022-07-27T10:37:46.207Z,19.11
2022-07-27T10:40:12.437Z,18.71
2022-07-27T10:42:38.622Z,18.35
2022-07-27T10:45:04.783Z,18.48
2022-07-27T10:47:30.942Z,19.04
2022-07-27T10:49:57.078Z,19.14
2022-07-27T10:52:23.235Z,18.88
2022-07-27T10:54:52.777Z,18.87
2022-07-27T10:57:22.966Z,18.96
2022-07-27T11:02:35.252Z,18.73
2022-07-27T11:05:01.400Z,19.22
2022-07-27T11:07:35.563Z,19.36
2022-07-27T11:10:10.151Z,19.39
2022-07-27T11:12:36.281Z,19.46
2022-07-27T11:15:02.446Z,19.88
2022-07-27T11:20:14.704Z,19.45
2022-07-27T11:25:26.983Z,19.26
2022-07-27T11:27:53.120Z,19.13
2022-07-27T11:30:19.274Z,19.33
2022-07-27T11:32:45.409Z,19.19
2022-07-27T11:35:16.308Z,19.29
2022-07-27T11:37:45.459Z,19.29
2022-07-27T11:40:37.451Z,19.54
2022-07-27T11:42:57.727Z,19.68
2022-07-27T11:45:25.115Z,19.61
2022-07-27T11:47:51.241Z,19.49
2022-07-27T11:50:17.390Z,19.74
2022-07-27T11:52:43.530Z,19.82
2022-07-27T11:55:09.677Z,19.69
2022-07-27T11:57:40.258Z,19.75
2022-07-27T12:00:06.458Z,20.08
2022-07-27T12:02:32.693Z,19.95
2022-07-27T12:05:02.962Z,19.82
2022-07-27T12:07:29.552Z,19.93
2022-07-27T12:09:55.685Z,19.75
2022-07-27T12:12:21.819Z,19.68
2022-07-27T12:14:47.993Z,19.51
2022-07-27T12:17:14.179Z,19.75
2022-07-27T12:19:40.378Z,19.45
2022-07-27T12:22:06.521Z,19.77
2022-07-27T12:24:32.651Z,19.88
2022-07-27T12:27:01.964Z,20.18
2022-07-27T12:29:32.167Z,20.41
2022-07-27T12:31:58.319Z,20.67
2022-07-27T12:34:24.464Z,20.93
2022-07-27T12:36:50.599Z,21.00
2022-07-27T12:39:16.732Z,21.19
2022-07-27T12:41:42.872Z,20.94
2022-07-27T12:44:09.028Z,20.61
2022-07-27T12:46:35.476Z,20.32
2022-07-27T12:49:01.726Z,20.31
2022-07-27T12:51:27.884Z,20.63
2022-07-27T12:53:54.018Z,20.91
2022-07-27T12:56:27.235Z,21.01
2022-07-27T12:58:53.937Z,20.74
2022-07-27T13:01:20.120Z,20.92
2022-07-27T13:03:46.355Z,20.93
2022-07-27T13:06:13.278Z,20.57
2022-07-27T13:08:39.492Z,20.62
2022-07-27T13:11:05.742Z,20.96
2022-07-27T13:13:31.882Z,21.19
2022-07-27T13:15:58.018Z,21.26
2022-07-27T13:18:24.352Z,21.26
2022-07-27T13:20:50.549Z,21.24
2022-07-27T13:23:16.702Z,20.90
2022-07-27T13:25:43.537Z,20.07
2022-07-27T13:28:09.817Z,20.75
2022-07-27T13:30:35.955Z,20.70
2022-07-27T13:33:02.114Z,20.67
2022-07-27T13:35:28.247Z,20.90
2022-07-27T13:37:54.411Z,21.08
2022-07-27T13:40:20.578Z,21.01
2022-07-27T13:42:46.711Z,21.01
2022-07-27T13:45:12.852Z,21.02
2022-07-27T13:47:39.022Z,21.09
2022-07-27T13:50:05.204Z,21.00
2022-07-27T13:52:31.359Z,20.87
2022-07-27T13:54:57.508Z,20.96
2022-07-27T13:57:23.634Z,20.96
2022-07-27T13:59:49.776Z,21.34
2022-07-27T14:02:16.017Z,21.62
2022-07-27T14:04:46.712Z,21.24
2022-07-27T14:07:12.849Z,21.10
2022-07-27T14:09:38.999Z,21.07
2022-07-27T14:12:05.142Z,20.93
2022-07-27T14:14:31.268Z,21.11
2022-07-27T14:16:57.993Z,21.53
2022-07-27T14:19:24.208Z,21.91
2022-07-27T14:21:50.367Z,22.37
2022-07-27T14:24:16.514Z,22.11
2022-07-27T14:26:42.640Z,20.97
2022-07-27T14:29:08.763Z,21.26
2022-07-27T14:31:34.987Z,20.99
2022-07-27T14:34:01.200Z,20.92
2022-07-27T14:36:27.349Z,20.73
2022-07-27T14:38:53.510Z,20.72
2022-07-27T14:41:19.659Z,20.75
2022-07-27T14:43:45.798Z,21.05
2022-07-27T14:46:12.044Z,21.10
2022-07-27T14:49:04.688Z,20.95
2022-07-27T14:51:24.390Z,20.62
2022-07-27T14:53:50.527Z,20.58
2022-07-27T14:56:16.652Z,20.67
2022-07-27T14:58:42.847Z,21.16
2022-07-27T15:01:09.080Z,21.19
2022-07-27T15:03:35.236Z,22.02
2022-07-27T15:06:02.009Z,23.17
2022-07-27T15:08:28.125Z,23.84
2022-07-27T15:10:54.262Z,23.89
2022-07-27T15:13:20.420Z,24.41
2022-07-27T15:15:46.568Z,24.16
2022-07-27T15:18:13.013Z,24.19
2022-07-27T15:20:39.667Z,23.79
2022-07-27T15:23:05.815Z,22.64
2022-07-27T15:25:31.962Z,22.53
2022-07-27T15:27:58.111Z,22.67
2022-07-27T15:30:24.258Z,22.21
2022-07-27T15:32:50.402Z,22.40
2022-07-27T15:35:16.568Z,22.72
2022-07-27T15:37:42.697Z,23.26
2022-07-27T15:40:20.641Z,22.39
2022-07-27T15:42:46.778Z,22.31
2022-07-27T15:45:12.975Z,22.24
2022-07-27T15:47:39.698Z,22.81
2022-07-27T15:50:06.038Z,22.86
2022-07-27T15:52:32.183Z,22.86
2022-07-27T15:54:58.334Z,22.81
2022-07-27T15:57:24.469Z,22.52
2022-07-27T15:59:50.595Z,22.25
2022-07-27T16:02:16.746Z,23.60
2022-07-27T16:04:50.835Z,24.94
2022-07-27T16:07:16.985Z,25.73
2022-07-27T16:09:43.662Z,25.09
2022-07-27T16:12:09.807Z,24.15
2022-07-27T16:14:35.926Z,23.84
2022-07-27T16:17:02.086Z,23.80
2022-07-27T16:19:28.222Z,24.58
2022-07-27T16:21:56.011Z,25.17
2022-07-27T16:24:22.313Z,25.55
2022-07-27T16:26:48.482Z,25.81
2022-07-27T16:29:14.954Z,25.23
2022-07-27T16:31:41.549Z,26.41
2022-07-27T16:34:07.782Z,27.08
2022-07-27T16:36:38.421Z,27.01
2022-07-27T16:39:05.494Z,27.05
2022-07-27T16:41:31.944Z,27.59
2022-07-27T16:43:58.087Z,27.52
2022-07-27T16:46:24.315Z,27.40
2022-07-27T16:48:50.512Z,26.19
2022-07-27T16:51:16.684Z,25.76
2022-07-27T16:53:42.876Z,25.68
2022-07-27T16:56:09.022Z,25.57
2022-07-27T16:58:35.162Z,25.39
2022-07-27T17:01:01.302Z,25.20
2022-07-27T17:03:27.441Z,25.15
2022-07-27T17:05:53.660Z,24.98
2022-07-27T17:08:19.856Z,24.67
2022-07-27T17:10:46.224Z,24.66
2022-07-27T17:13:14.428Z,24.47
2022-07-27T17:15:40.612Z,23.54
2022-07-27T17:18:06.836Z,23.31
2022-07-27T17:20:35.381Z,23.45
2022-07-27T17:23:01.973Z,23.12
2022-07-27T17:25:28.142Z,23.27
2022-07-27T17:27:54.299Z,23.13
2022-07-27T17:30:20.463Z,22.91
2022-07-27T17:32:46.619Z,22.79
2022-07-27T17:35:12.756Z,22.75
2022-07-27T17:38:04.471Z,22.69
2022-07-27T17:40:25.476Z,22.91
2022-07-27T17:42:51.715Z,24.12
2022-07-27T17:45:17.850Z,25.09
2022-07-27T17:47:43.995Z,25.77
2022-07-27T17:50:10.138Z,26.09
2022-07-27T17:52:38.356Z,26.76
2022-07-27T17:55:04.721Z,26.83
2022-07-27T17:57:30.877Z,26.17
2022-07-27T17:59:57.006Z,25.96
2022-07-27T18:02:23.213Z,24.45
2022-07-27T18:04:49.497Z,23.60
2022-07-27T18:07:15.702Z,23.22
2022-07-27T18:09:41.834Z,23.85
2022-07-27T18:12:08.813Z,24.18
2022-07-27T18:14:34.933Z,23.64
2022-07-27T18:17:04.606Z,22.91
2022-07-27T18:19:30.766Z,22.58
2022-07-27T18:21:56.907Z,22.52
2022-07-27T18:24:23.042Z,22.27
2022-07-27T18:26:49.333Z,22.41
2022-07-27T18:29:17.495Z,22.40
2022-07-27T18:31:43.705Z,22.24
2022-07-27T18:34:12.870Z,22.16
2022-07-27T18:36:39.283Z,22.35
2022-07-27T18:39:05.428Z,22.76
2022-07-27T18:41:31.587Z,22.91
2022-07-27T18:43:57.727Z,22.81
2022-07-27T18:46:23.952Z,22.30
2022-07-27T18:48:50.228Z,22.10
2022-07-27T18:51:16.431Z,21.92
2022-07-27T18:53:42.574Z,21.79
2022-07-27T18:56:08.734Z,21.46
2022-07-27T18:58:34.878Z,21.36
2022-07-27T19:01:01.014Z,21.21
2022-07-27T19:03:27.865Z,21.13
2022-07-27T19:05:54.195Z,21.10
2022-07-27T19:08:20.818Z,20.99
2022-07-27T19:10:46.966Z,20.99
2022-07-27T19:13:13.110Z,20.87
2022-07-27T19:15:39.248Z,20.87
2022-07-27T19:18:06.195Z,20.48
2022-07-27T19:20:32.335Z,20.29
2022-07-27T19:22:58.471Z,20.22
2022-07-27T19:25:24.632Z,20.25
2022-07-27T19:27:50.769Z,20.17
2022-07-27T19:30:16.903Z,19.99
2022-07-27T19:32:44.398Z,19.90
2022-07-27T19:35:10.541Z,19.83
2022-07-27T19:37:36.671Z,19.69
2022-07-27T19:40:20.216Z,19.57
2022-07-27T19:42:48.954Z,19.45
2022-07-27T19:45:15.098Z,19.36
2022-07-27T19:47:41.253Z,19.24
2022-07-27T19:50:07.435Z,19.20
2022-07-27T19:52:33.610Z,19.04
2022-07-27T19:54:59.764Z,19.00
2022-07-27T19:57:25.898Z,18.97
2022-07-27T19:59:55.075Z,18.85
2022-07-27T20:02:22.819Z,18.70
2022-07-27T20:04:49.008Z,18.60
2022-07-27T20:07:15.304Z,18.61
2022-07-27T20:09:41.486Z,18.59
2022-07-27T20:12:07.673Z,18.28
2022-07-27T20:14:33.847Z,18.36
2022-07-27T20:17:00.058Z,18.39
2022-07-27T20:19:26.205Z,18.24
2022-07-27T20:21:52.352Z,18.15
2022-07-27T20:24:18.482Z,18.00
2022-07-27T20:26:48.931Z,17.92
2022-07-27T20:29:15.777Z,17.82
2022-07-27T20:31:42.171Z,17.78
2022-07-27T20:34:08.289Z,17.72
2022-07-27T20:36:34.603Z,17.50
2022-07-27T20:39:00.741Z,17.67
2022-07-27T20:41:26.880Z,17.74
2022-07-27T20:43:53.737Z,17.64
2022-07-27T20:46:19.957Z,17.63
2022-07-27T20:48:46.225Z,17.45
2022-07-27T20:51:12.425Z,17.37
2022-07-27T20:53:38.553Z,17.36
2022-07-27T20:56:04.685Z,17.36
2022-07-27T20:58:30.828Z,17.26
2022-07-27T21:00:57.006Z,17.19
2022-07-27T21:03:23.164Z,17.12
2022-07-27T21:05:49.335Z,17.18
2022-07-27T21:08:15.475Z,17.14
2022-07-27T21:10:41.607Z,17.13
2022-07-27T21:13:07.769Z,17.05
2022-07-27T21:15:34.411Z,16.91
2022-07-27T21:18:00.638Z,16.81
2022-07-27T21:20:26.795Z,16.72
2022-07-27T21:22:52.916Z,16.74
2022-07-27T21:25:19.054Z,16.64
2022-07-27T21:27:45.205Z,16.66
2022-07-27T21:30:13.307Z,16.59
2022-07-27T21:32:39.440Z,16.54
2022-07-27T21:35:07.289Z,16.56
2022-07-27T21:37:33.608Z,16.47
2022-07-27T21:39:59.739Z,16.49
2022-07-27T21:42:25.893Z,16.46
2022-07-27T21:44:52.015Z,16.47
2022-07-27T21:47:18.136Z,16.43
2022-07-27T21:49:44.290Z,16.28
2022-07-27T21:52:10.414Z,16.27
2022-07-27T21:54:36.540Z,16.23
2022-07-27T21:57:02.690Z,16.18
2022-07-27T21:59:28.823Z,16.10
2022-07-27T22:01:54.957Z,15.96
2022-07-27T22:04:21.177Z,15.95
2022-07-27T22:06:47.337Z,15.96
2022-07-27T22:09:13.474Z,16.01
2022-07-27T22:11:39.623Z,15.98
2022-07-27T22:14:05.743Z,16.00
2022-07-27T22:16:31.975Z,15.93
2022-07-27T22:18:58.171Z,15.88
2022-07-27T22:21:26.131Z,15.89
2022-07-27T22:23:52.279Z,15.84
2022-07-27T22:26:18.439Z,15.72
2022-07-27T22:28:44.592Z,15.76
2022-07-27T22:31:22.871Z,15.80
2022-07-27T22:33:49.498Z,15.65
2022-07-27T22:36:15.638Z,15.61
2022-07-27T22:38:41.798Z,15.47
2022-07-27T22:41:08.014Z,15.48
2022-07-27T22:43:34.154Z,15.41
2022-07-27T22:46:00.354Z,15.46
2022-07-27T22:48:26.550Z,15.50
2022-07-27T22:50:52.693Z,15.47
2022-07-27T22:53:18.849Z,15.37
2022-07-27T22:55:44.998Z,15.28
2022-07-27T22:58:11.129Z,15.33
2022-07-27T23:00:37.310Z,15.21
2022-07-27T23:03:03.517Z,15.25
2022-07-27T23:05:29.690Z,15.36
2022-07-27T23:07:55.835Z,15.34
2022-07-27T23:10:22.016Z,15.26
2022-07-27T23:12:48.162Z,15.17
2022-07-27T23:15:14.316Z,15.22
2022-07-27T23:17:40.479Z,15.20
2022-07-27T23:20:06.610Z,15.18
2022-07-27T23:22:32.735Z,15.10
2022-07-27T23:25:00.518Z,14.98
2022-07-27T23:27:26.807Z,14.89
2022-07-27T23:29:52.942Z,15.00
2022-07-27T23:32:19.115Z,15.01
2022-07-27T23:34:45.258Z,15.03
2022-07-27T23:37:11.406Z,14.99
2022-07-27T23:39:37.559Z,14.87
2022-07-27T23:42:03.696Z,14.79
2022-07-27T23:44:29.848Z,14.80
2022-07-27T23:46:56.394Z,14.77
2022-07-27T23:49:22.592Z,14.85
2022-07-27T23:51:48.805Z,14.83
2022-07-27T23:54:15.394Z,14.84
2022-07-27T23:56:41.818Z,14.83
2022-07-27T23:59:07.955Z,14.72
